createdAt,value
2018-01-18T00:00:03.936Z,0
2018-01-18T00:00:44.571Z,0
2018-01-18T00:01:25.136Z,0
2018-01-18T00:02:05.732Z,0
2018-01-18T00:02:46.296Z,0
2018-01-18T00:03:26.849Z,0
2018-01-18T00:04:07.406Z,0
2018-01-18T00:04:48.020Z,0
2018-01-18T00:05:28.599Z,0
2018-01-18T00:06:09.181Z,0
2018-01-18T00:06:49.741Z,0
2018-01-18T00:07:30.315Z,0
2018-01-18T00:08:10.886Z,0
2018-01-18T00:08:51.479Z,0
2018-01-18T00:09:32.054Z,0
2018-01-18T00:10:12.609Z,0
2018-01-18T00:10:53.172Z,0
2018-01-18T00:11:33.723Z,0
2018-01-18T00:12:14.298Z,0
2018-01-18T00:12:54.890Z,0
2018-01-18T00:13:35.449Z,0
2018-01-18T00:14:16.040Z,0
2018-01-18T00:14:56.671Z,0
2018-01-18T00:15:37.247Z,0
2018-01-18T00:16:17.820Z,0
2018-01-18T00:16:58.391Z,0
2018-01-18T00:17:38.948Z,0
2018-01-18T00:18:19.519Z,0
2018-01-18T00:19:00.090Z,0
2018-01-18T00:19:40.659Z,0
2018-01-18T00:20:21.222Z,0
2018-01-18T00:21:01.785Z,0
2018-01-18T00:21:42.401Z,0
2018-01-18T00:22:22.931Z,0
2018-01-18T00:23:03.483Z,0
2018-01-18T00:23:44.039Z,0
2018-01-18T00:24:24.597Z,0
2018-01-18T00:25:05.183Z,0
2018-01-18T00:25:45.782Z,0
2018-01-18T00:26:26.378Z,0
2018-01-18T00:27:06.967Z,0
2018-01-18T00:27:47.539Z,0
2018-01-18T00:28:28.114Z,0
2018-01-18T00:29:08.813Z,0
2018-01-18T00:29:49.369Z,0
2018-01-18T00:30:29.945Z,0
2018-01-18T00:31:10.507Z,0
2018-01-18T00:31:51.120Z,0
2018-01-18T00:32:31.695Z,0
2018-01-18T00:33:12.254Z,0
2018-01-18T00:33:52.834Z,0
2018-01-18T00:34:33.402Z,0
2018-01-18T00:35:13.991Z,0
2018-01-18T00:35:54.550Z,0
2018-01-18T00:36:35.121Z,0
2018-01-18T00:37:15.687Z,0
2018-01-18T00:37:56.320Z,0
2018-01-18T00:38:36.906Z,0
2018-01-18T00:39:17.597Z,0
2018-01-18T00:39:58.177Z,0
2018-01-18T00:40:38.769Z,0
2018-01-18T00:41:19.331Z,0
2018-01-18T00:41:59.897Z,0
2018-01-18T00:42:40.469Z,0
2018-01-18T00:43:21.105Z,0
2018-01-18T00:44:01.687Z,0
2018-01-18T00:44:42.273Z,0
2018-01-18T00:45:22.904Z,0
2018-01-18T00:46:03.462Z,0
2018-01-18T00:46:44.024Z,0
2018-01-18T00:47:24.583Z,0
2018-01-18T00:48:05.187Z,0
2018-01-18T00:48:45.753Z,0
2018-01-18T00:49:26.313Z,0
2018-01-18T00:50:06.893Z,0
2018-01-18T00:50:47.467Z,0
2018-01-18T00:51:28.022Z,0
2018-01-18T00:52:08.582Z,0
2018-01-18T00:52:49.159Z,0
2018-01-18T00:53:29.730Z,0
2018-01-18T00:54:10.286Z,0
2018-01-18T00:54:50.861Z,0
2018-01-18T00:55:31.427Z,0
2018-01-18T00:56:11.973Z,0
2018-01-18T00:56:52.597Z,0
2018-01-18T00:57:33.144Z,0
2018-01-18T00:58:13.711Z,0
2018-01-18T00:58:54.281Z,0
2018-01-18T00:59:34.871Z,0
2018-01-18T01:00:15.428Z,0
2018-01-18T01:00:55.995Z,0
2018-01-18T01:01:36.558Z,0
2018-01-18T01:02:17.132Z,0
2018-01-18T01:02:57.695Z,0
2018-01-18T01:03:38.274Z,0
2018-01-18T01:04:18.830Z,0
2018-01-18T01:04:59.410Z,0
2018-01-18T01:05:40.049Z,0
2018-01-18T01:06:20.612Z,0
2018-01-18T01:07:01.175Z,0
2018-01-18T01:07:41.730Z,0
2018-01-18T01:08:22.335Z,0
2018-01-18T01:09:02.891Z,0
2018-01-18T01:09:43.446Z,0
2018-01-18T01:10:24.027Z,0
2018-01-18T01:11:04.576Z,0
2018-01-18T01:11:45.153Z,0
2018-01-18T01:12:25.721Z,0
2018-01-18T01:13:06.294Z,0
2018-01-18T01:13:46.872Z,0
2018-01-18T01:14:28.145Z,0
2018-01-18T01:15:08.758Z,0
2018-01-18T01:15:49.304Z,0
2018-01-18T01:16:29.872Z,0
2018-01-18T01:17:10.440Z,0
2018-01-18T01:17:51.002Z,0
2018-01-18T01:18:31.613Z,0
2018-01-18T01:19:12.178Z,0
2018-01-18T01:19:52.749Z,0
2018-01-18T01:20:33.304Z,0
2018-01-18T01:21:13.871Z,0
2018-01-18T01:21:54.441Z,0
2018-01-18T01:22:35.030Z,0
2018-01-18T01:23:15.605Z,0
2018-01-18T01:23:56.173Z,0
2018-01-18T01:24:36.753Z,0
2018-01-18T01:25:17.317Z,0
2018-01-18T01:25:57.876Z,0
2018-01-18T01:26:38.448Z,0
2018-01-18T01:27:19.038Z,0
2018-01-18T01:27:59.583Z,0
2018-01-18T01:28:40.148Z,0
2018-01-18T01:29:20.702Z,0
2018-01-18T01:30:01.320Z,0
2018-01-18T01:30:41.872Z,0
2018-01-18T01:31:22.437Z,0
2018-01-18T01:32:03.007Z,0
2018-01-18T01:32:43.580Z,0
2018-01-18T01:33:24.159Z,0
2018-01-18T01:34:04.727Z,0
2018-01-18T01:34:45.295Z,0
2018-01-18T01:35:25.861Z,0
2018-01-18T01:36:06.439Z,0
2018-01-18T01:36:47.005Z,0
2018-01-18T01:37:27.571Z,0
2018-01-18T01:38:08.140Z,0
2018-01-18T01:38:48.691Z,0
2018-01-18T01:39:29.280Z,0
2018-01-18T01:40:09.845Z,0
2018-01-18T01:40:50.410Z,0
2018-01-18T01:41:30.992Z,0
2018-01-18T01:42:11.623Z,0
2018-01-18T01:42:52.209Z,0
2018-01-18T01:43:32.816Z,0
2018-01-18T01:44:13.420Z,0
2018-01-18T01:44:53.992Z,0
2018-01-18T01:45:34.564Z,0
2018-01-18T01:46:15.175Z,0
2018-01-18T01:46:55.752Z,0
2018-01-18T01:47:36.318Z,0
2018-01-18T01:48:16.882Z,0
2018-01-18T01:48:57.450Z,0
2018-01-18T01:49:38.049Z,0
2018-01-18T01:50:18.633Z,0
2018-01-18T01:50:59.195Z,0
2018-01-18T01:51:39.763Z,0
2018-01-18T01:52:20.322Z,0
2018-01-18T01:53:00.879Z,0
2018-01-18T01:53:41.464Z,0
2018-01-18T01:54:22.034Z,0
2018-01-18T01:55:02.618Z,0
2018-01-18T01:55:43.177Z,0
2018-01-18T01:56:23.728Z,0
2018-01-18T01:57:04.321Z,0
2018-01-18T01:57:44.889Z,0
2018-01-18T01:58:25.494Z,0
2018-01-18T01:59:06.060Z,0
2018-01-18T01:59:46.700Z,0
2018-01-18T02:00:27.262Z,0
2018-01-18T02:01:07.828Z,0
2018-01-18T02:01:48.384Z,0
2018-01-18T02:02:28.928Z,0
2018-01-18T02:03:09.490Z,0
2018-01-18T02:03:50.051Z,0
2018-01-18T02:04:30.630Z,0
2018-01-18T02:05:11.275Z,0
2018-01-18T02:05:51.824Z,0
2018-01-18T02:06:32.402Z,0
2018-01-18T02:07:12.988Z,0
2018-01-18T02:07:53.600Z,0
2018-01-18T02:08:34.167Z,0
2018-01-18T02:09:14.740Z,0
2018-01-18T02:09:55.294Z,0
2018-01-18T02:10:35.854Z,0
2018-01-18T02:11:16.447Z,0
2018-01-18T02:11:57.022Z,0
2018-01-18T02:12:37.602Z,0
2018-01-18T02:13:18.189Z,0
2018-01-18T02:13:58.758Z,0
2018-01-18T02:14:39.325Z,0
2018-01-18T02:15:20.147Z,0
2018-01-18T02:16:00.706Z,0
2018-01-18T02:16:41.261Z,0
2018-01-18T02:17:21.821Z,0
2018-01-18T02:18:02.397Z,0
2018-01-18T02:18:42.962Z,0
2018-01-18T02:19:23.523Z,0
2018-01-18T02:20:04.096Z,0
2018-01-18T02:20:44.656Z,0
2018-01-18T02:21:25.271Z,0
2018-01-18T02:22:05.827Z,0
2018-01-18T02:22:46.396Z,0
2018-01-18T02:23:26.958Z,0
2018-01-18T02:24:07.530Z,0
2018-01-18T02:24:48.096Z,0
2018-01-18T02:25:28.671Z,0
2018-01-18T02:26:09.233Z,0
2018-01-18T02:26:49.795Z,0
2018-01-18T02:27:30.361Z,0
2018-01-18T02:28:10.941Z,0
2018-01-18T02:28:51.581Z,0
2018-01-18T02:29:32.145Z,0
2018-01-18T02:30:12.745Z,0
2018-01-18T02:30:53.307Z,0
2018-01-18T02:31:33.887Z,0
2018-01-18T02:32:14.443Z,0
2018-01-18T02:32:54.996Z,0
2018-01-18T02:33:35.561Z,0
2018-01-18T02:34:16.114Z,0
2018-01-18T02:34:56.727Z,0
2018-01-18T02:35:37.311Z,0
2018-01-18T02:36:17.866Z,0
2018-01-18T02:36:58.435Z,0
2018-01-18T02:37:39.007Z,0
2018-01-18T02:38:19.568Z,0
2018-01-18T02:39:00.150Z,0
2018-01-18T02:39:40.714Z,0
2018-01-18T02:40:21.272Z,0
2018-01-18T02:41:01.854Z,0
2018-01-18T02:41:42.423Z,0
2018-01-18T02:42:22.989Z,0
2018-01-18T02:43:03.564Z,0
2018-01-18T02:43:44.131Z,0
2018-01-18T02:44:24.698Z,0
2018-01-18T02:45:05.285Z,0
2018-01-18T02:45:45.858Z,0
2018-01-18T02:46:26.431Z,0
2018-01-18T02:47:06.999Z,0
2018-01-18T02:47:47.585Z,0
2018-01-18T02:48:28.183Z,0
2018-01-18T02:49:08.735Z,0
2018-01-18T02:49:49.328Z,0
2018-01-18T02:50:29.885Z,0
2018-01-18T02:51:10.511Z,0
2018-01-18T02:51:51.102Z,0
2018-01-18T02:52:31.666Z,0
2018-01-18T02:53:12.284Z,0
2018-01-18T02:53:52.884Z,0
2018-01-18T02:54:33.438Z,0
2018-01-18T02:55:14.038Z,0
2018-01-18T02:55:54.614Z,0
2018-01-18T02:56:35.199Z,0
2018-01-18T02:57:15.750Z,0
2018-01-18T02:57:56.309Z,0
2018-01-18T02:58:36.870Z,0
2018-01-18T02:59:17.440Z,0
2018-01-18T02:59:58.026Z,0
2018-01-18T03:00:38.602Z,0
2018-01-18T03:01:19.165Z,0
2018-01-18T03:01:59.731Z,0
2018-01-18T03:02:40.302Z,0
2018-01-18T03:03:20.865Z,0
2018-01-18T03:04:01.437Z,0
2018-01-18T03:04:42.042Z,0
2018-01-18T03:05:22.601Z,0
2018-01-18T03:06:03.161Z,0
2018-01-18T03:06:43.725Z,0
2018-01-18T03:07:24.311Z,0
2018-01-18T03:08:04.868Z,0
2018-01-18T03:08:45.478Z,0
2018-01-18T03:09:26.056Z,0
2018-01-18T03:10:06.608Z,0
2018-01-18T03:10:47.166Z,0
2018-01-18T03:11:27.728Z,0
2018-01-18T03:12:08.293Z,0
2018-01-18T03:12:48.866Z,0
2018-01-18T03:13:29.441Z,0
2018-01-18T03:14:10.010Z,0
2018-01-18T03:14:50.579Z,0
2018-01-18T03:15:31.136Z,0
2018-01-18T03:16:11.718Z,0
2018-01-18T03:16:52.280Z,0
2018-01-18T03:17:32.858Z,0
2018-01-18T03:18:13.427Z,0
2018-01-18T03:18:53.984Z,0
2018-01-18T03:19:34.535Z,0
2018-01-18T03:20:15.091Z,0
2018-01-18T03:20:55.659Z,0
2018-01-18T03:21:36.232Z,0
2018-01-18T03:22:16.785Z,0
2018-01-18T03:22:57.348Z,0
2018-01-18T03:23:37.911Z,0
2018-01-18T03:24:18.473Z,0
2018-01-18T03:24:59.035Z,0
2018-01-18T03:25:39.601Z,0
2018-01-18T03:26:20.155Z,0
2018-01-18T03:27:00.731Z,0
2018-01-18T03:27:41.295Z,0
2018-01-18T03:28:21.871Z,0
2018-01-18T03:29:02.425Z,0
2018-01-18T03:29:43.006Z,0
2018-01-18T03:30:23.580Z,0
2018-01-18T03:31:04.134Z,0
2018-01-18T03:31:44.715Z,0
2018-01-18T03:32:25.309Z,0
2018-01-18T03:33:05.871Z,0
2018-01-18T03:33:46.432Z,0
2018-01-18T03:34:27.005Z,0
2018-01-18T03:35:07.573Z,0
2018-01-18T03:35:48.132Z,0
2018-01-18T03:36:28.722Z,0
2018-01-18T03:37:09.332Z,0
2018-01-18T03:37:49.903Z,0
2018-01-18T03:38:30.873Z,0
2018-01-18T03:39:11.875Z,0
2018-01-18T03:39:52.440Z,0
2018-01-18T03:40:32.994Z,0
2018-01-18T03:41:13.555Z,0
2018-01-18T03:41:54.120Z,0
2018-01-18T03:42:34.686Z,0
2018-01-18T03:43:15.237Z,0
2018-01-18T03:43:55.802Z,0
2018-01-18T03:44:36.360Z,0
2018-01-18T03:45:16.922Z,0
2018-01-18T03:45:57.551Z,0
2018-01-18T03:46:38.156Z,0
2018-01-18T03:47:18.728Z,0
2018-01-18T03:47:59.293Z,0
2018-01-18T03:48:40.147Z,0
2018-01-18T03:49:24.198Z,0
2018-01-18T03:50:04.756Z,0
2018-01-18T03:50:45.321Z,0
2018-01-18T03:51:25.896Z,0
2018-01-18T03:52:06.496Z,0
2018-01-18T03:52:47.051Z,0
2018-01-18T03:53:27.604Z,0
2018-01-18T03:54:08.173Z,0
2018-01-18T03:54:48.760Z,0
2018-01-18T03:55:29.310Z,0
2018-01-18T03:56:09.885Z,0
2018-01-18T03:56:50.453Z,0
2018-01-18T03:57:31.018Z,0
2018-01-18T03:58:11.572Z,0
2018-01-18T03:58:52.123Z,0
2018-01-18T03:59:32.692Z,0
2018-01-18T04:00:13.262Z,0
2018-01-18T04:00:53.828Z,0
2018-01-18T04:01:34.412Z,0
2018-01-18T04:02:14.982Z,0
2018-01-18T04:02:55.537Z,0
2018-01-18T04:03:36.095Z,0
2018-01-18T04:04:16.655Z,0
2018-01-18T04:04:57.221Z,0
2018-01-18T04:05:37.780Z,0
2018-01-18T04:06:18.350Z,0
2018-01-18T04:06:58.907Z,0
2018-01-18T04:07:39.479Z,0
2018-01-18T04:08:20.055Z,0
2018-01-18T04:09:00.624Z,0
2018-01-18T04:09:41.193Z,0
2018-01-18T04:10:21.773Z,0
2018-01-18T04:11:02.349Z,0
2018-01-18T04:11:42.946Z,0
2018-01-18T04:12:23.513Z,0
2018-01-18T04:13:04.069Z,0
2018-01-18T04:13:44.644Z,0
2018-01-18T04:14:25.210Z,0
2018-01-18T04:15:05.782Z,0
2018-01-18T04:15:46.351Z,0
2018-01-18T04:16:26.918Z,0
2018-01-18T04:17:07.491Z,0
2018-01-18T04:17:48.055Z,0
2018-01-18T04:18:28.617Z,0
2018-01-18T04:19:09.185Z,0
2018-01-18T04:19:49.791Z,0
2018-01-18T04:20:30.367Z,0
2018-01-18T04:21:10.925Z,0
2018-01-18T04:21:51.478Z,0
2018-01-18T04:22:32.054Z,0
2018-01-18T04:23:12.605Z,0
2018-01-18T04:23:53.152Z,0
2018-01-18T04:24:33.716Z,0
2018-01-18T04:25:14.270Z,0
2018-01-18T04:25:54.841Z,0
2018-01-18T04:26:35.397Z,0
2018-01-18T04:27:15.958Z,0
2018-01-18T04:27:56.514Z,0
2018-01-18T04:28:37.069Z,0
2018-01-18T04:29:17.629Z,0
2018-01-18T04:29:58.186Z,0
2018-01-18T04:30:38.757Z,0
2018-01-18T04:31:19.320Z,0
2018-01-18T04:31:59.871Z,0
2018-01-18T04:32:40.435Z,0
2018-01-18T04:33:21.008Z,0
2018-01-18T04:34:01.574Z,0
2018-01-18T04:34:42.125Z,0
2018-01-18T04:35:22.687Z,0
2018-01-18T04:36:03.242Z,0
2018-01-18T04:36:43.816Z,0
2018-01-18T04:37:24.407Z,0
2018-01-18T04:38:04.979Z,0
2018-01-18T04:38:45.549Z,0
2018-01-18T04:39:26.098Z,0
2018-01-18T04:40:06.648Z,0
2018-01-18T04:40:47.222Z,0
2018-01-18T04:41:27.776Z,0
2018-01-18T04:42:08.342Z,0
2018-01-18T04:42:48.908Z,0
2018-01-18T04:43:29.472Z,0
2018-01-18T04:44:10.032Z,0
2018-01-18T04:44:50.609Z,0
2018-01-18T04:45:31.194Z,0
2018-01-18T04:46:11.764Z,0
2018-01-18T04:46:52.335Z,0
2018-01-18T04:47:32.897Z,0
2018-01-18T04:48:13.460Z,0
2018-01-18T04:48:54.013Z,0
2018-01-18T04:49:34.614Z,0
2018-01-18T04:50:15.182Z,0
2018-01-18T04:50:55.782Z,0
2018-01-18T04:51:36.350Z,0
2018-01-18T04:52:16.918Z,0
2018-01-18T04:52:57.505Z,0
2018-01-18T04:53:38.089Z,0
2018-01-18T04:54:18.659Z,0
2018-01-18T04:54:59.212Z,0
2018-01-18T04:55:39.780Z,0
2018-01-18T04:56:20.374Z,0
2018-01-18T04:57:00.947Z,0
2018-01-18T04:57:41.510Z,0
2018-01-18T04:58:22.078Z,0
2018-01-18T04:59:02.655Z,0
2018-01-18T04:59:43.259Z,0
2018-01-18T05:00:23.805Z,0
2018-01-18T05:01:04.372Z,0
2018-01-18T05:01:44.934Z,0
2018-01-18T05:02:25.488Z,0
2018-01-18T05:03:06.054Z,0
2018-01-18T05:03:46.649Z,0
2018-01-18T05:04:27.201Z,0
2018-01-18T05:05:08.476Z,0
2018-01-18T05:05:49.046Z,0
2018-01-18T05:06:29.624Z,0
2018-01-18T05:07:10.195Z,0
2018-01-18T05:07:50.757Z,0
2018-01-18T05:08:31.334Z,0
2018-01-18T05:09:11.910Z,0
2018-01-18T05:09:52.464Z,0
2018-01-18T05:10:33.036Z,0
2018-01-18T05:11:13.603Z,0
2018-01-18T05:11:54.161Z,0
2018-01-18T05:12:34.749Z,0
2018-01-18T05:13:15.314Z,0
2018-01-18T05:13:55.910Z,0
2018-01-18T05:14:36.482Z,0
2018-01-18T05:15:17.045Z,0
2018-01-18T05:15:57.602Z,0
2018-01-18T05:16:38.165Z,0
2018-01-18T05:17:18.742Z,0
2018-01-18T05:17:59.364Z,0
2018-01-18T05:18:39.953Z,0
2018-01-18T05:19:20.524Z,0
2018-01-18T05:20:01.085Z,0
2018-01-18T05:20:41.648Z,0
2018-01-18T05:21:22.399Z,0
2018-01-18T05:22:02.998Z,0
2018-01-18T05:22:43.561Z,0
2018-01-18T05:23:24.177Z,0
2018-01-18T05:24:04.747Z,0
2018-01-18T05:24:45.336Z,0
2018-01-18T05:25:25.938Z,0
2018-01-18T05:26:06.495Z,0
2018-01-18T05:26:47.057Z,0
2018-01-18T05:27:27.670Z,0
2018-01-18T05:28:08.244Z,0
2018-01-18T05:28:48.794Z,0
2018-01-18T05:29:29.351Z,0
2018-01-18T05:30:10.023Z,0
2018-01-18T05:30:50.542Z,0
2018-01-18T05:31:31.115Z,0
2018-01-18T05:32:11.694Z,0
2018-01-18T05:32:52.264Z,0
2018-01-18T05:33:32.813Z,0
2018-01-18T05:34:13.376Z,0
2018-01-18T05:34:53.959Z,0
2018-01-18T05:35:34.524Z,0
2018-01-18T05:36:15.094Z,0
2018-01-18T05:36:55.664Z,0
2018-01-18T05:37:36.255Z,0
2018-01-18T05:38:16.828Z,0
2018-01-18T05:38:57.384Z,0
2018-01-18T05:39:37.943Z,0
2018-01-18T05:40:18.514Z,0
2018-01-18T05:40:59.066Z,0
2018-01-18T05:41:39.620Z,0
2018-01-18T05:42:20.194Z,0
2018-01-18T05:43:00.782Z,0
2018-01-18T05:43:41.341Z,0
2018-01-18T05:44:21.897Z,0
2018-01-18T05:45:02.476Z,0
2018-01-18T05:45:43.041Z,0
2018-01-18T05:46:23.608Z,0
2018-01-18T05:47:04.200Z,0
2018-01-18T05:47:44.785Z,0
2018-01-18T05:48:25.394Z,0
2018-01-18T05:50:58.518Z,0
2018-01-18T05:51:39.068Z,0
2018-01-18T05:52:19.627Z,0
2018-01-18T05:53:00.198Z,0
2018-01-18T05:53:40.773Z,0
2018-01-18T05:54:21.345Z,0
2018-01-18T05:55:01.894Z,0
2018-01-18T05:55:42.444Z,0
2018-01-18T05:56:23.022Z,0
2018-01-18T05:57:03.570Z,0
2018-01-18T05:57:44.126Z,0
2018-01-18T05:58:24.687Z,0
2018-01-18T05:59:05.275Z,0
2018-01-18T05:59:45.885Z,0
2018-01-18T06:00:26.461Z,0
2018-01-18T06:01:07.048Z,0
2018-01-18T06:01:47.647Z,0
2018-01-18T06:02:28.200Z,0
2018-01-18T06:03:08.789Z,0
2018-01-18T06:03:49.357Z,0
2018-01-18T06:04:29.919Z,0
2018-01-18T06:05:10.469Z,0
2018-01-18T06:05:51.045Z,0
2018-01-18T06:06:31.605Z,0
2018-01-18T06:07:12.157Z,0
2018-01-18T06:07:52.724Z,0
2018-01-18T06:08:33.302Z,0
2018-01-18T06:09:13.905Z,0
2018-01-18T06:09:54.431Z,0
2018-01-18T06:10:35.035Z,0
2018-01-18T06:11:15.603Z,0
2018-01-18T06:11:56.174Z,0
2018-01-18T06:12:36.733Z,0
2018-01-18T06:13:17.264Z,0
2018-01-18T06:13:57.853Z,0
2018-01-18T06:14:38.788Z,0
2018-01-18T06:15:19.350Z,0
2018-01-18T06:15:59.928Z,0
2018-01-18T06:16:40.524Z,0
2018-01-18T06:17:21.100Z,0
2018-01-18T06:18:02.400Z,0
2018-01-18T06:18:42.953Z,0
2018-01-18T06:19:23.558Z,0
2018-01-18T06:20:04.106Z,0
2018-01-18T06:20:44.683Z,0
2018-01-18T06:21:25.255Z,0
2018-01-18T06:22:05.836Z,0
2018-01-18T06:22:46.399Z,0
2018-01-18T06:23:26.951Z,4
2018-01-18T06:24:07.505Z,4
2018-01-18T06:24:48.056Z,0
2018-01-18T06:25:28.637Z,0
2018-01-18T06:26:09.254Z,0
2018-01-18T06:26:49.850Z,0
2018-01-18T06:27:30.431Z,0
2018-01-18T06:28:10.975Z,0
2018-01-18T06:28:51.519Z,0
2018-01-18T06:29:32.088Z,0
2018-01-18T06:30:12.683Z,0
2018-01-18T06:30:53.254Z,0
2018-01-18T06:31:33.803Z,0
2018-01-18T06:32:14.392Z,4
2018-01-18T06:32:54.948Z,4
2018-01-18T06:33:35.554Z,4
2018-01-18T06:34:16.106Z,4
2018-01-18T06:34:56.660Z,4
2018-01-18T06:35:37.281Z,0
2018-01-18T06:36:17.825Z,0
2018-01-18T06:36:58.393Z,0
2018-01-18T06:37:38.955Z,0
2018-01-18T06:38:19.510Z,0
2018-01-18T06:39:00.083Z,4
2018-01-18T06:39:40.680Z,4
2018-01-18T06:40:21.251Z,4
2018-01-18T06:41:01.818Z,4
2018-01-18T06:41:42.389Z,0
2018-01-18T06:42:22.953Z,4
2018-01-18T06:43:03.530Z,0
2018-01-18T06:43:44.107Z,0
2018-01-18T06:44:24.671Z,4
2018-01-18T06:45:05.229Z,4
2018-01-18T06:45:45.803Z,4
2018-01-18T06:46:26.384Z,4
2018-01-18T06:47:06.964Z,4
2018-01-18T06:47:47.523Z,4
2018-01-18T06:48:28.080Z,8
2018-01-18T06:49:08.646Z,4
2018-01-18T06:49:49.203Z,8
2018-01-18T06:50:29.797Z,8
2018-01-18T06:51:10.370Z,8
2018-01-18T06:51:50.992Z,8
2018-01-18T06:52:31.620Z,8
2018-01-18T06:53:12.161Z,8
2018-01-18T06:53:52.734Z,12
2018-01-18T06:54:33.313Z,12
2018-01-18T06:55:13.894Z,12
2018-01-18T06:55:54.459Z,12
2018-01-18T06:56:35.021Z,16
2018-01-18T06:57:15.591Z,16
2018-01-18T06:57:56.186Z,20
2018-01-18T06:58:36.735Z,20
2018-01-18T06:59:17.299Z,20
2018-01-18T06:59:57.908Z,24
2018-01-18T07:00:38.426Z,28
2018-01-18T07:01:18.984Z,28
2018-01-18T07:01:59.543Z,32
2018-01-18T07:02:40.107Z,36
2018-01-18T07:03:20.665Z,36
2018-01-18T07:04:01.242Z,40
2018-01-18T07:04:41.795Z,40
2018-01-18T07:05:22.353Z,40
2018-01-18T07:06:03.287Z,40
2018-01-18T07:06:44.075Z,44
2018-01-18T07:07:24.633Z,44
2018-01-18T07:08:05.229Z,48
2018-01-18T07:08:45.804Z,52
2018-01-18T07:09:26.416Z,60
2018-01-18T07:10:06.978Z,68
2018-01-18T07:10:47.540Z,76
2018-01-18T07:11:28.116Z,88
2018-01-18T07:12:08.729Z,96
2018-01-18T07:12:49.316Z,108
2018-01-18T07:13:30.006Z,116
2018-01-18T07:14:11.909Z,124
2018-01-18T07:14:52.062Z,128
2018-01-18T07:15:33.337Z,136
2018-01-18T07:16:13.899Z,144
2018-01-18T07:16:55.356Z,152
2018-01-18T07:17:36.291Z,156
2018-01-18T07:18:16.869Z,156
2018-01-18T07:18:57.513Z,156
2018-01-18T07:19:38.167Z,156
2018-01-18T07:20:18.736Z,156
2018-01-18T07:20:59.381Z,152
2018-01-18T07:21:40.001Z,148
2018-01-18T07:22:20.596Z,148
2018-01-18T07:23:01.144Z,148
2018-01-18T07:23:41.785Z,152
2018-01-18T07:24:22.365Z,152
2018-01-18T07:25:03.006Z,156
2018-01-18T07:25:43.779Z,160
2018-01-18T07:26:24.339Z,168
2018-01-18T07:27:04.984Z,176
2018-01-18T07:27:45.644Z,188
2018-01-18T07:28:26.284Z,200
2018-01-18T07:29:06.849Z,208
2018-01-18T07:29:49.266Z,224
2018-01-18T07:30:29.829Z,244
2018-01-18T07:31:10.390Z,272
2018-01-18T07:31:51.691Z,312
2018-01-18T07:32:32.268Z,356
2018-01-18T07:33:12.950Z,408
2018-01-18T07:33:53.591Z,460
2018-01-18T07:34:34.154Z,508
2018-01-18T07:35:14.935Z,544
2018-01-18T07:35:55.744Z,568
2018-01-18T07:36:36.319Z,576
2018-01-18T07:37:16.880Z,572
2018-01-18T07:37:57.447Z,556
2018-01-18T07:38:38.143Z,540
2018-01-18T07:39:18.747Z,520
2018-01-18T07:39:59.352Z,496
2018-01-18T07:40:39.912Z,476
2018-01-18T07:41:22.212Z,460
2018-01-18T07:42:02.875Z,448
2018-01-18T07:42:43.453Z,440
2018-01-18T07:43:24.003Z,432
2018-01-18T07:44:04.574Z,420
2018-01-18T07:44:45.264Z,408
2018-01-18T07:45:25.831Z,400
2018-01-18T07:46:06.391Z,384
2018-01-18T07:46:47.003Z,368
2018-01-18T07:47:27.511Z,356
2018-01-18T07:48:08.740Z,348
2018-01-18T07:48:49.867Z,352
2018-01-18T07:49:30.419Z,356
2018-01-18T07:50:11.019Z,368
2018-01-18T07:50:51.584Z,380
2018-01-18T07:51:32.152Z,392
2018-01-18T07:52:12.715Z,400
2018-01-18T07:52:53.312Z,412
2018-01-18T07:53:33.877Z,420
2018-01-18T07:54:14.485Z,424
2018-01-18T07:54:55.067Z,420
2018-01-18T07:55:35.614Z,408
2018-01-18T07:56:16.250Z,396
2018-01-18T07:56:56.879Z,384
2018-01-18T07:57:37.453Z,380
2018-01-18T07:58:18.040Z,376
2018-01-18T07:58:58.639Z,380
2018-01-18T07:59:39.196Z,380
2018-01-18T08:00:19.766Z,376
2018-01-18T08:01:00.531Z,380
2018-01-18T08:01:41.095Z,376
2018-01-18T08:02:21.654Z,376
2018-01-18T08:03:02.202Z,372
2018-01-18T08:03:42.762Z,368
2018-01-18T08:04:23.322Z,368
2018-01-18T08:05:03.882Z,372
2018-01-18T08:05:44.463Z,380
2018-01-18T08:06:25.054Z,396
2018-01-18T08:07:05.627Z,404
2018-01-18T08:07:46.196Z,408
2018-01-18T08:08:26.769Z,408
2018-01-18T08:09:07.318Z,408
2018-01-18T08:09:47.886Z,404
2018-01-18T08:10:28.461Z,392
2018-01-18T08:11:09.042Z,376
2018-01-18T08:11:49.606Z,360
2018-01-18T08:12:30.164Z,340
2018-01-18T08:13:10.733Z,324
2018-01-18T08:13:51.305Z,316
2018-01-18T08:14:31.885Z,312
2018-01-18T08:15:12.438Z,316
2018-01-18T08:15:53.333Z,320
2018-01-18T08:16:33.904Z,320
2018-01-18T08:17:14.459Z,320
2018-01-18T08:17:55.032Z,316
2018-01-18T08:18:35.588Z,312
2018-01-18T08:19:16.155Z,312
2018-01-18T08:19:56.748Z,312
2018-01-18T08:20:37.299Z,316
2018-01-18T08:21:17.917Z,308
2018-01-18T08:21:58.434Z,304
2018-01-18T08:22:38.995Z,296
2018-01-18T08:23:19.586Z,300
2018-01-18T08:24:01.069Z,308
2018-01-18T08:24:41.667Z,320
2018-01-18T08:25:22.440Z,336
2018-01-18T08:26:02.993Z,352
2018-01-18T08:26:43.566Z,372
2018-01-18T08:27:24.146Z,392
2018-01-18T08:28:04.778Z,420
2018-01-18T08:28:45.344Z,444
2018-01-18T08:29:26.014Z,464
2018-01-18T08:30:06.592Z,496
2018-01-18T08:30:47.171Z,516
2018-01-18T08:31:27.724Z,536
2018-01-18T08:32:08.289Z,556
2018-01-18T08:32:48.840Z,580
2018-01-18T08:33:29.409Z,608
2018-01-18T08:34:09.975Z,640
2018-01-18T08:34:50.555Z,664
2018-01-18T08:35:31.271Z,688
2018-01-18T08:36:11.802Z,704
2018-01-18T08:36:52.355Z,728
2018-01-18T08:37:32.926Z,748
2018-01-18T08:38:13.526Z,744
2018-01-18T08:38:54.109Z,740
2018-01-18T08:39:34.718Z,728
2018-01-18T08:40:15.318Z,724
2018-01-18T08:40:55.872Z,744
2018-01-18T08:41:36.437Z,784
2018-01-18T08:42:17.193Z,832
2018-01-18T08:42:57.708Z,912
2018-01-18T08:43:38.253Z,1028
2018-01-18T08:44:18.871Z,1164
2018-01-18T08:44:59.438Z,1340
2018-01-18T08:45:40.073Z,1496
2018-01-18T08:46:20.645Z,1620
2018-01-18T08:47:01.230Z,1744
2018-01-18T08:47:41.786Z,1848
2018-01-18T08:48:22.361Z,1940
2018-01-18T08:49:02.928Z,1960
2018-01-18T08:49:43.507Z,1904
2018-01-18T08:50:24.054Z,1812
2018-01-18T08:51:04.640Z,1724
2018-01-18T08:51:45.243Z,1624
2018-01-18T08:52:25.842Z,1492
2018-01-18T08:53:06.414Z,1336
2018-01-18T08:53:46.988Z,1184
2018-01-18T08:54:27.616Z,1068
2018-01-18T08:55:08.218Z,984
2018-01-18T08:55:48.798Z,912
2018-01-18T08:56:29.359Z,848
2018-01-18T08:57:09.923Z,784
2018-01-18T08:57:50.496Z,728
2018-01-18T08:58:31.091Z,680
2018-01-18T08:59:11.652Z,632
2018-01-18T08:59:52.221Z,604
2018-01-18T09:00:32.809Z,588
2018-01-18T09:01:13.445Z,584
2018-01-18T09:01:54.015Z,576
2018-01-18T09:02:34.577Z,572
2018-01-18T09:03:15.151Z,564
2018-01-18T09:03:55.716Z,556
2018-01-18T09:04:36.295Z,532
2018-01-18T09:05:16.911Z,504
2018-01-18T09:05:57.520Z,476
2018-01-18T09:06:38.089Z,440
2018-01-18T09:07:18.694Z,408
2018-01-18T09:07:59.258Z,380
2018-01-18T09:08:39.830Z,368
2018-01-18T09:09:20.401Z,368
2018-01-18T09:10:00.996Z,364
2018-01-18T09:10:41.578Z,356
2018-01-18T09:11:22.155Z,352
2018-01-18T09:12:02.782Z,356
2018-01-18T09:12:43.340Z,344
2018-01-18T09:13:23.902Z,356
2018-01-18T09:14:04.478Z,352
2018-01-18T09:14:45.098Z,344
2018-01-18T09:15:25.691Z,348
2018-01-18T09:16:06.265Z,364
2018-01-18T09:16:46.817Z,384
2018-01-18T09:17:27.393Z,424
2018-01-18T09:18:07.957Z,456
2018-01-18T09:18:48.543Z,516
2018-01-18T09:19:29.094Z,556
2018-01-18T09:20:09.666Z,580
2018-01-18T09:20:50.248Z,596
2018-01-18T09:21:30.811Z,624
2018-01-18T09:22:11.378Z,604
2018-01-18T09:22:51.927Z,620
2018-01-18T09:23:32.508Z,640
2018-01-18T09:24:13.098Z,672
2018-01-18T09:24:53.708Z,644
2018-01-18T09:25:34.303Z,660
2018-01-18T09:26:14.862Z,640
2018-01-18T09:26:55.417Z,628
2018-01-18T09:27:36.072Z,612
2018-01-18T09:28:16.668Z,640
2018-01-18T09:28:57.229Z,656
2018-01-18T09:29:37.789Z,696
2018-01-18T09:30:18.353Z,660
2018-01-18T09:30:59.019Z,632
2018-01-18T09:31:39.581Z,600
2018-01-18T09:32:20.129Z,572
2018-01-18T09:33:00.721Z,568
2018-01-18T09:33:41.385Z,572
2018-01-18T09:34:21.912Z,588
2018-01-18T09:35:02.487Z,560
2018-01-18T09:35:43.072Z,548
2018-01-18T09:36:23.624Z,520
2018-01-18T09:37:04.182Z,544
2018-01-18T09:37:44.769Z,564
2018-01-18T09:38:25.358Z,568
2018-01-18T09:39:05.928Z,632
2018-01-18T09:39:46.562Z,692
2018-01-18T09:40:27.305Z,760
2018-01-18T09:41:07.914Z,804
2018-01-18T09:41:48.483Z,764
2018-01-18T09:42:29.083Z,800
2018-01-18T09:43:09.664Z,860
2018-01-18T09:43:50.237Z,912
2018-01-18T09:44:30.792Z,1008
2018-01-18T09:45:11.376Z,1052
2018-01-18T09:45:52.116Z,1172
2018-01-18T09:46:32.740Z,1196
2018-01-18T09:47:13.310Z,1148
2018-01-18T09:47:53.870Z,996
2018-01-18T09:48:34.453Z,848
2018-01-18T09:49:15.038Z,708